Vashti, North Carolina
Current Conditions -  °F | °C
As of 9:15 AM on Saturday 25 Oct 2014 (Local Time) from KSVH Reporting Station
Clear Clear  
Wind Chill: 47°   Ceiling: Unl
Heat Index: 47°   Visibility: 10mi
Dew Point: 41°   Wind: 0mph
Humidity: 79%   Direction: NA
Pressure: 30.04"   Gusts: NA
Location:  35.9603°N, 81.0498°W
Report Text: KSVH 251315Z AUTO 00000KT 10SM CLR 08/05 A3004 RMK AO2 T00830049
Loading
Personal Weather Stations






























Interactive Weather Map
Tropical Storm Tracking
New forecast layout! Learn more

10-Day Weather Forecast

Advertisements
Track Severe Weather on mobile